Nearby METAR Reports

 

KMSY - New Orleans,Louisiana, USA
Distance from station: E 11.7mi, 18.8km
Updated: Tue, 18-Sep-2018 9:53am CDT
Few Clouds
Few Clouds
 Wind from S
Wind: S 3 mph , 6 km/h
Temperature: 90°F , 32°C
Heat Index: 109°F , 43°C
Dew Point: 81°F , 27°C
Humidity: 75%
Barometer: 29.98 inHg , 1015.2 hPa
Clouds: Few Clouds
Visibility: 10 miles , 16 km
Cloud details: Few Clouds 2500 ft
2018/09/18 14:53 KMSY 181453Z 19003KT 10SM FEW025 32/27 A2998 RMK AO2 SLP155 T03220267 51005
KAPS - Reserve,Louisiana, USA
Distance from station: W 8.4mi, 13.5km
Updated: Tue, 18-Sep-2018 9:55am CDT
Clear
Clear
 Wind from calm
Wind: Calm
Temperature: 90°F , 32°C
Heat Index: 104°F , 40°C
Dew Point: 77°F , 25°C
Humidity: 67%
Barometer: 29.98 inHg , 1015.2 hPa
Clouds: Clear
Visibility: 10 miles , 16 km
2018/09/18 14:55 KAPS 181455Z AUTO 00000KT 10SM CLR 32/25 A2998 RMK AO2 T03170254
 
KHDC - Hammond,Louisiana, USA
Distance from station: N 31.5mi, 50.6km
Updated: Tue, 18-Sep-2018 9:55am CDT
Clear
Clear
 Wind from calm
Wind: Calm
Temperature: 86°F , 30°C
Heat Index: 95°F , 35°C
Dew Point: 75°F , 24°C
Humidity: 70%
Barometer: 29.98 inHg , 1015.2 hPa
Clouds: Clear
Visibility: 10 miles , 16 km
2018/09/18 14:55 KHDC 181455Z AUTO 00000KT 10SM CLR 30/24 A2998 RMK AO2
KHUM - Houma,Louisiana, USA
Distance from station: SW 36.54mi, 58.8km
Updated: Tue, 18-Sep-2018 9:50am CDT
Haze, Clear
Haze, Clear
 Wind from calm
Wind: Calm
Temperature: 88°F , 31°C
Heat Index: 106°F , 41°C
Dew Point: 81°F , 27°C
Humidity: 79%
Barometer: 29.98 inHg , 1015.2 hPa
Summary: Haze
Clouds: Clear
Visibility: 5 miles , 8 km
2018/09/18 14:50 KHUM 181450Z 00000KT 5SM HZ SKC 31/27 A2998